createdAt,value
2022-12-06T00:01:44.372Z,20.77
2022-12-06T00:04:14.663Z,18.20
2022-12-06T00:06:45.009Z,18.85
2022-12-06T00:09:20.872Z,18.08
2022-12-06T00:11:48.414Z,17.67
2022-12-06T00:14:16.315Z,15.20
2022-12-06T00:16:44.197Z,20.35
2022-12-06T00:19:13.946Z,17.35
2022-12-06T00:21:42.090Z,15.93
2022-12-06T00:24:12.458Z,14.05
2022-12-06T00:26:42.496Z,17.87
2022-12-06T00:29:22.411Z,16.37
2022-12-06T00:31:50.339Z,18.35
2022-12-06T00:34:18.127Z,16.80
2022-12-06T00:36:45.675Z,19.15
2022-12-06T00:39:15.314Z,20.73
2022-12-06T00:41:43.623Z,16.37
2022-12-06T00:44:11.699Z,17.67
2022-12-06T00:46:39.619Z,18.85
2022-12-06T00:49:09.063Z,18.77
2022-12-06T00:51:37.925Z,18.10
2022-12-06T00:54:06.574Z,19.00
2022-12-06T00:56:36.109Z,18.83
2022-12-06T00:59:04.013Z,16.02
2022-12-06T01:01:33.716Z,17.12
2022-12-06T01:04:04.434Z,16.63
2022-12-06T01:06:33.523Z,19.12
2022-12-06T01:09:04.910Z,21.17
2022-12-06T01:11:32.347Z,19.52
2022-12-06T01:14:00.049Z,19.48
2022-12-06T01:16:30.602Z,18.27
2022-12-06T01:19:03.195Z,18.98
2022-12-06T01:21:31.555Z,19.30
2022-12-06T01:23:59.619Z,17.05
2022-12-06T01:26:30.116Z,17.20
2022-12-06T01:28:59.201Z,14.30
2022-12-06T01:31:33.690Z,15.43
2022-12-06T01:34:06.579Z,18.12
2022-12-06T01:36:34.108Z,16.48
2022-12-06T01:39:06.605Z,17.55
2022-12-06T01:41:34.565Z,17.87
2022-12-06T01:44:02.727Z,14.60
2022-12-06T01:46:44.507Z,15.38
2022-12-06T01:49:12.126Z,15.68
2022-12-06T01:51:54.199Z,15.10
2022-12-06T01:54:24.389Z,17.70
2022-12-06T01:56:53.977Z,13.90
2022-12-06T01:59:23.428Z,17.60
2022-12-06T02:01:51.875Z,16.98
2022-12-06T02:04:19.731Z,16.27
2022-12-06T02:06:47.823Z,15.17
2022-12-06T02:09:17.058Z,16.85
2022-12-06T02:11:45.980Z,17.73
2022-12-06T02:14:18.195Z,19.08
2022-12-06T02:16:48.864Z,18.20
2022-12-06T02:19:19.177Z,16.67
2022-12-06T02:22:11.187Z,20.23
2022-12-06T02:25:06.329Z,19.12
2022-12-06T02:27:52.087Z,13.88
2022-12-06T02:30:53.439Z,19.42
2022-12-06T02:33:30.119Z,20.10
2022-12-06T02:36:36.199Z,18.00
2022-12-06T02:39:11.967Z,17.40
2022-12-06T02:41:45.649Z,20.60
2022-12-06T02:44:21.178Z,21.02
2022-12-06T02:46:51.393Z,16.00
2022-12-06T02:49:20.987Z,20.42
2022-12-06T02:51:50.103Z,19.42
2022-12-06T02:54:19.036Z,18.20
2022-12-06T02:56:46.795Z,16.92
2022-12-06T02:59:14.247Z,18.00
2022-12-06T03:01:46.620Z,23.55
2022-12-06T03:04:49.881Z,17.67
2022-12-06T03:07:26.076Z,15.88
2022-12-06T03:10:15.154Z,21.40
2022-12-06T03:13:16.765Z,18.00
2022-12-06T03:16:00.156Z,16.65
2022-12-06T03:19:00.494Z,22.80
2022-12-06T03:21:39.096Z,18.27
2022-12-06T03:24:10.915Z,19.83
2022-12-06T03:26:39.340Z,23.37
2022-12-06T03:29:10.466Z,19.02
2022-12-06T03:31:41.838Z,20.98
2022-12-06T03:34:15.301Z,20.55
2022-12-06T03:36:45.011Z,20.70
2022-12-06T03:39:19.283Z,20.03
2022-12-06T03:41:53.367Z,23.23
2022-12-06T03:44:21.714Z,24.12
2022-12-06T03:46:54.495Z,22.60
2022-12-06T03:49:33.220Z,23.75
2022-12-06T03:52:00.830Z,19.73
2022-12-06T03:54:28.618Z,20.27
2022-12-06T03:56:56.118Z,24.52
2022-12-06T03:59:23.599Z,21.65
2022-12-06T04:01:51.341Z,19.00
2022-12-06T04:04:19.175Z,22.60
2022-12-06T04:06:46.699Z,23.25
2022-12-06T04:09:33.787Z,26.58
2022-12-06T04:12:01.574Z,24.33
2022-12-06T04:14:32.492Z,26.95
2022-12-06T04:17:18.632Z,29.17
2022-12-06T04:19:51.815Z,24.23
2022-12-06T04:22:38.061Z,26.40
2022-12-06T04:25:06.190Z,26.58
2022-12-06T04:27:52.126Z,23.62
2022-12-06T04:30:38.452Z,24.30
2022-12-06T04:33:24.899Z,22.02
2022-12-06T04:36:15.007Z,28.12
2022-12-06T04:38:42.703Z,31.65
2022-12-06T04:41:33.191Z,28.10
2022-12-06T04:44:00.574Z,27.47
2022-12-06T04:46:28.469Z,24.48
2022-12-06T04:48:56.107Z,24.27
2022-12-06T04:51:24.112Z,26.08
2022-12-06T04:53:52.185Z,24.35
2022-12-06T04:56:19.686Z,23.27
2022-12-06T04:58:47.180Z,27.67
2022-12-06T05:01:14.905Z,26.20
2022-12-06T05:03:44.363Z,27.35
2022-12-06T05:06:12.163Z,27.70
2022-12-06T05:08:40.072Z,26.07
2022-12-06T05:11:07.470Z,24.55
2022-12-06T05:13:35.998Z,27.52
2022-12-06T05:16:05.783Z,28.00
2022-12-06T05:18:34.291Z,23.10
2022-12-06T05:21:12.759Z,26.07
2022-12-06T05:23:40.893Z,23.62
2022-12-06T05:26:12.122Z,26.48
2022-12-06T05:28:40.171Z,26.92
2022-12-06T05:31:08.320Z,27.37
2022-12-06T05:33:36.734Z,29.93
2022-12-06T05:36:13.994Z,32.92
2022-12-06T05:38:41.440Z,24.92
2022-12-06T05:41:09.719Z,31.73
2022-12-06T05:43:37.240Z,28.45
2022-12-06T05:46:05.385Z,29.70
2022-12-06T05:48:33.366Z,30.15
2022-12-06T05:51:00.833Z,32.28
2022-12-06T05:53:28.502Z,33.40
2022-12-06T05:55:56.272Z,28.48
2022-12-06T05:58:23.729Z,28.30
2022-12-06T06:00:51.598Z,27.83
2022-12-06T06:03:19.414Z,26.50
2022-12-06T06:05:49.947Z,25.75
2022-12-06T06:08:18.384Z,21.92
2022-12-06T06:10:46.398Z,20.83
2022-12-06T06:13:13.734Z,21.00
2022-12-06T06:15:41.175Z,24.00
2022-12-06T06:18:08.891Z,20.62
2022-12-06T06:20:36.414Z,22.80
2022-12-06T06:23:03.952Z,22.37
2022-12-06T06:25:31.732Z,27.70
2022-12-06T06:27:59.143Z,25.10
2022-12-06T06:30:26.554Z,24.67
2022-12-06T06:32:54.196Z,20.40
2022-12-06T06:35:21.747Z,21.40
2022-12-06T06:37:49.161Z,21.58
2022-12-06T06:40:16.974Z,23.05
2022-12-06T06:42:44.380Z,22.20
2022-12-06T06:45:11.820Z,23.67
2022-12-06T06:47:39.909Z,24.00
2022-12-06T06:50:08.386Z,21.05
2022-12-06T06:52:35.858Z,24.30
2022-12-06T06:55:03.820Z,23.17
2022-12-06T06:57:31.242Z,23.10
2022-12-06T06:59:58.977Z,26.57
2022-12-06T07:02:26.854Z,25.25
2022-12-06T07:04:54.311Z,22.73
2022-12-06T07:07:21.720Z,25.15
2022-12-06T07:09:49.466Z,24.10
2022-12-06T07:12:16.994Z,23.77
2022-12-06T07:14:44.444Z,24.85
2022-12-06T07:17:12.278Z,22.95
2022-12-06T07:19:39.714Z,26.77
2022-12-06T07:22:07.079Z,24.60
2022-12-06T07:24:41.314Z,25.53
2022-12-06T07:27:09.749Z,24.95
2022-12-06T07:29:38.437Z,29.37
2022-12-06T07:32:06.116Z,28.15
2022-12-06T07:34:33.578Z,27.30
2022-12-06T07:37:01.264Z,25.07
2022-12-06T07:39:28.703Z,25.98
2022-12-06T07:42:15.055Z,29.12
2022-12-06T07:45:02.244Z,24.85
2022-12-06T07:47:42.406Z,31.50
2022-12-06T07:50:18.086Z,26.30
2022-12-06T07:52:47.790Z,29.40
2022-12-06T07:55:16.626Z,32.30
2022-12-06T07:57:44.534Z,33.15
2022-12-06T08:00:15.160Z,33.53
2022-12-06T08:02:43.512Z,32.07
2022-12-06T08:05:10.967Z,30.17
2022-12-06T08:07:38.972Z,33.63
2022-12-06T08:10:07.517Z,31.02
2022-12-06T08:12:35.007Z,30.80
2022-12-06T08:15:02.373Z,30.70
2022-12-06T08:17:30.594Z,26.37
2022-12-06T08:19:58.308Z,26.65
2022-12-06T08:22:25.903Z,31.60
2022-12-06T08:24:53.675Z,34.25
2022-12-06T08:27:21.130Z,26.70
2022-12-06T08:29:48.617Z,24.77
2022-12-06T08:32:16.508Z,22.58
2022-12-06T08:34:44.461Z,17.58
2022-12-06T08:37:12.473Z,16.67
2022-12-06T08:39:40.229Z,17.77
2022-12-06T08:42:08.185Z,16.25
2022-12-06T08:44:36.503Z,20.27
2022-12-06T08:47:04.639Z,21.55
2022-12-06T08:49:32.426Z,23.83
2022-12-06T08:52:00.470Z,24.93
2022-12-06T08:54:28.609Z,25.62
2022-12-06T08:56:56.102Z,27.35
2022-12-06T08:59:24.136Z,19.73
2022-12-06T09:01:52.068Z,19.90
2022-12-06T09:04:19.792Z,17.67
2022-12-06T09:06:47.438Z,15.48
2022-12-06T09:09:17.590Z,13.70
2022-12-06T09:11:46.294Z,11.55
2022-12-06T09:14:21.498Z,10.82
2022-12-06T09:16:51.439Z,8.77
2022-12-06T09:19:19.897Z,4.10
2022-12-06T09:21:47.454Z,3.83
2022-12-06T09:24:16.876Z,5.00
2022-12-06T09:26:44.675Z,3.20
2022-12-06T09:29:12.327Z,4.40
2022-12-06T09:31:41.090Z,2.62
2022-12-06T09:34:10.039Z,5.10
2022-12-06T09:36:54.130Z,3.42
2022-12-06T09:39:30.015Z,3.40
2022-12-06T09:42:33.732Z,4.73
2022-12-06T09:45:24.834Z,2.85
2022-12-06T09:48:10.367Z,3.00
2022-12-06T09:50:41.371Z,2.58
2022-12-06T09:53:42.208Z,2.95
2022-12-06T09:56:22.127Z,2.67
2022-12-06T09:59:14.983Z,4.00
2022-12-06T10:01:48.882Z,2.42
2022-12-06T10:04:44.115Z,2.97
2022-12-06T10:07:44.166Z,2.62
2022-12-06T10:10:31.890Z,2.27
2022-12-06T10:13:18.976Z,2.72
2022-12-06T10:15:57.531Z,2.55
2022-12-06T10:18:43.610Z,2.87
2022-12-06T10:21:37.211Z,4.37
2022-12-06T10:24:31.762Z,3.67
2022-12-06T10:27:12.416Z,4.62
2022-12-06T10:30:01.816Z,3.47
2022-12-06T10:32:48.547Z,2.12
2022-12-06T10:35:24.419Z,2.45
2022-12-06T10:37:58.071Z,1.57
2022-12-06T10:40:31.222Z,1.65
2022-12-06T10:43:14.433Z,1.62
2022-12-06T10:46:09.116Z,1.40
2022-12-06T10:48:43.415Z,1.10
2022-12-06T10:51:34.694Z,1.53
2022-12-06T10:54:13.285Z,2.45
2022-12-06T10:56:43.353Z,1.08
2022-12-06T10:59:28.220Z,1.20
2022-12-06T11:02:00.683Z,2.22
2022-12-06T11:04:39.263Z,1.77
2022-12-06T11:07:15.356Z,1.40
2022-12-06T11:09:51.515Z,2.55
2022-12-06T11:12:25.233Z,1.83
2022-12-06T11:15:14.193Z,2.05
2022-12-06T11:17:45.302Z,3.30
2022-12-06T11:20:22.893Z,2.50
2022-12-06T11:23:17.692Z,2.45
2022-12-06T11:25:57.358Z,1.87
2022-12-06T11:28:41.952Z,3.12
2022-12-06T11:31:28.309Z,1.63
2022-12-06T11:33:58.143Z,2.03
2022-12-06T11:36:26.435Z,1.77
2022-12-06T11:38:53.916Z,2.00
2022-12-06T11:41:26.249Z,2.65
2022-12-06T11:43:55.141Z,1.67
2022-12-06T11:46:23.300Z,2.30
2022-12-06T11:48:51.308Z,1.83
2022-12-06T11:51:23.323Z,2.33
2022-12-06T11:54:05.745Z,2.72
2022-12-06T11:56:37.207Z,2.17
2022-12-06T11:59:26.979Z,3.62
2022-12-06T12:01:57.875Z,2.28
2022-12-06T12:04:45.964Z,2.80
2022-12-06T12:07:18.502Z,3.30
2022-12-06T12:09:52.995Z,1.53
2022-12-06T12:12:23.378Z,3.95
2022-12-06T12:14:56.066Z,1.95
2022-12-06T12:17:28.670Z,2.67
2022-12-06T12:20:20.503Z,2.53
2022-12-06T12:23:00.199Z,2.47
2022-12-06T12:25:31.891Z,2.25
2022-12-06T12:28:01.445Z,4.93
2022-12-06T12:30:39.875Z,2.08
2022-12-06T12:33:07.324Z,2.42
2022-12-06T12:35:44.995Z,3.40
2022-12-06T12:38:24.697Z,3.08
2022-12-06T12:41:00.104Z,2.12
2022-12-06T12:43:31.961Z,2.00
2022-12-06T12:46:17.825Z,3.05
2022-12-06T12:48:47.811Z,3.33
2022-12-06T12:51:31.908Z,3.83
2022-12-06T12:54:03.641Z,4.32
2022-12-06T12:56:37.374Z,3.33
2022-12-06T12:59:14.847Z,4.37
2022-12-06T13:01:56.157Z,3.03
2022-12-06T13:05:17.182Z,2.72
2022-12-06T13:07:46.859Z,2.67
2022-12-06T13:10:36.658Z,3.37
2022-12-06T13:13:14.271Z,3.35
2022-12-06T13:15:51.061Z,3.70
2022-12-06T13:18:58.237Z,2.95
2022-12-06T13:21:25.799Z,2.85
2022-12-06T13:24:04.030Z,2.55
2022-12-06T13:26:44.500Z,2.67
2022-12-06T13:29:40.131Z,2.73
2022-12-06T13:32:20.725Z,4.43
2022-12-06T13:34:57.022Z,4.50
2022-12-06T13:37:43.852Z,2.67
2022-12-06T13:40:33.541Z,2.12
2022-12-06T13:43:28.641Z,2.60
2022-12-06T13:46:15.097Z,3.37
2022-12-06T13:48:52.951Z,3.53
2022-12-06T13:51:32.859Z,3.90
2022-12-06T13:54:06.085Z,2.97
2022-12-06T13:56:33.771Z,3.07
2022-12-06T13:59:11.212Z,2.85
2022-12-06T14:01:49.638Z,2.85
2022-12-06T14:06:57.042Z,3.45
2022-12-06T14:09:26.006Z,8.80
2022-12-06T14:11:53.531Z,5.87
2022-12-06T14:14:23.719Z,6.07
2022-12-06T14:17:05.476Z,8.25
2022-12-06T14:19:48.222Z,7.30
2022-12-06T14:22:25.133Z,4.73
2022-12-06T14:25:20.950Z,8.75
2022-12-06T14:27:52.008Z,7.70
2022-12-06T14:30:25.649Z,7.75
2022-12-06T14:32:56.135Z,12.27
2022-12-06T14:35:26.089Z,7.77
2022-12-06T14:37:59.550Z,9.27
2022-12-06T14:40:50.500Z,8.05
2022-12-06T14:43:20.181Z,8.60
2022-12-06T14:45:48.468Z,8.65
2022-12-06T14:48:16.266Z,8.23
2022-12-06T14:50:50.449Z,10.82
2022-12-06T14:53:31.919Z,11.15
2022-12-06T14:56:02.570Z,12.27
2022-12-06T14:58:45.367Z,15.25
2022-12-06T15:01:21.094Z,8.57
2022-12-06T15:04:06.873Z,8.40
2022-12-06T15:06:36.911Z,6.78
2022-12-06T15:09:14.807Z,5.82
2022-12-06T15:12:02.109Z,8.15
2022-12-06T15:14:47.559Z,6.77
2022-12-06T15:17:21.835Z,13.40
2022-12-06T15:19:51.855Z,5.47
2022-12-06T15:22:26.669Z,5.93
2022-12-06T15:24:57.464Z,6.45
2022-12-06T15:27:27.985Z,7.13
2022-12-06T15:29:55.601Z,5.55
2022-12-06T15:32:25.657Z,4.57
2022-12-06T15:34:53.373Z,5.32
2022-12-06T15:37:39.378Z,5.55
2022-12-06T15:40:08.676Z,4.47
2022-12-06T15:42:36.237Z,4.00
2022-12-06T15:45:04.172Z,4.25
2022-12-06T15:47:32.066Z,4.87
2022-12-06T15:49:59.728Z,5.40
2022-12-06T15:52:28.071Z,9.80
2022-12-06T15:54:55.786Z,5.78
2022-12-06T15:57:23.262Z,9.65
2022-12-06T15:59:50.719Z,8.73
2022-12-06T16:02:19.221Z,5.20
2022-12-06T16:04:50.524Z,5.47
2022-12-06T16:07:19.244Z,6.43
2022-12-06T16:09:47.804Z,8.52
2022-12-06T16:12:15.250Z,8.15
2022-12-06T16:14:42.818Z,7.62
2022-12-06T16:17:10.651Z,8.10
2022-12-06T16:19:57.053Z,7.50
2022-12-06T16:22:44.733Z,10.63
2022-12-06T16:25:12.193Z,10.32
2022-12-06T16:27:39.945Z,8.27
2022-12-06T16:30:08.078Z,6.57
2022-12-06T16:32:35.512Z,7.15
2022-12-06T16:35:03.573Z,6.95
2022-12-06T16:37:31.295Z,6.85
2022-12-06T16:39:58.763Z,7.90
2022-12-06T16:42:26.455Z,7.83
2022-12-06T16:44:53.908Z,6.62
2022-12-06T16:49:49.330Z,7.00
2022-12-06T16:52:17.561Z,7.87
2022-12-06T16:54:45.270Z,7.53
2022-12-06T16:57:13.435Z,7.60
2022-12-06T16:59:42.423Z,10.30
2022-12-06T17:02:30.778Z,8.00
2022-12-06T17:05:06.261Z,8.73
2022-12-06T17:07:39.155Z,13.20
2022-12-06T17:10:07.979Z,17.35
2022-12-06T17:12:35.550Z,18.50
2022-12-06T17:15:03.569Z,19.85
2022-12-06T17:17:31.653Z,23.60
2022-12-06T17:19:59.116Z,23.97
2022-12-06T17:22:26.610Z,28.25
2022-12-06T17:24:54.415Z,26.50
2022-12-06T17:27:22.218Z,20.10
2022-12-06T17:29:49.689Z,21.70
2022-12-06T17:32:18.289Z,19.33
2022-12-06T17:34:45.724Z,20.92
2022-12-06T17:37:13.263Z,17.45
2022-12-06T17:39:41.067Z,17.85
2022-12-06T17:42:29.219Z,13.73
2022-12-06T17:44:57.944Z,11.10
2022-12-06T17:47:25.625Z,12.43
2022-12-06T17:49:54.287Z,14.40
2022-12-06T17:52:22.547Z,13.93
2022-12-06T17:54:49.950Z,17.67
2022-12-06T17:57:18.585Z,18.00
2022-12-06T17:59:48.066Z,12.37
2022-12-06T18:02:19.031Z,11.63
2022-12-06T18:04:48.106Z,9.68
2022-12-06T18:07:17.623Z,11.57
2022-12-06T18:09:46.295Z,13.87
2022-12-06T18:12:15.630Z,11.35
2022-12-06T18:14:43.602Z,12.77
2022-12-06T18:17:11.534Z,13.07
2022-12-06T18:19:40.905Z,14.48
2022-12-06T18:22:08.975Z,18.53
2022-12-06T18:24:36.662Z,16.45
2022-12-06T18:27:06.125Z,15.38
2022-12-06T18:29:34.585Z,18.35
2022-12-06T18:32:02.282Z,16.90
2022-12-06T18:34:30.343Z,16.77
2022-12-06T18:36:57.891Z,40.53
2022-12-06T18:39:25.507Z,56.17
2022-12-06T18:41:54.514Z,39.40
2022-12-06T18:44:22.530Z,32.08
2022-12-06T18:46:50.142Z,30.00
2022-12-06T18:49:17.993Z,29.48
2022-12-06T18:51:45.595Z,29.87
2022-12-06T18:54:14.147Z,29.15
2022-12-06T18:56:42.434Z,27.02
2022-12-06T18:59:11.807Z,19.63
2022-12-06T19:01:40.239Z,22.85
2022-12-06T19:04:14.316Z,20.12
2022-12-06T19:06:43.524Z,19.08
2022-12-06T19:09:14.939Z,19.35
2022-12-06T19:11:46.187Z,21.67
2022-12-06T19:14:15.202Z,20.48
2022-12-06T19:16:46.036Z,17.50
2022-12-06T19:19:19.487Z,22.23
2022-12-06T19:21:47.591Z,23.95
2022-12-06T19:24:20.163Z,20.07
2022-12-06T19:26:50.554Z,19.73
2022-12-06T19:29:18.974Z,23.40
2022-12-06T19:31:46.722Z,22.35
2022-12-06T19:34:17.087Z,22.92
2022-12-06T19:36:45.042Z,20.83
2022-12-06T19:39:14.028Z,23.87
2022-12-06T19:42:00.992Z,20.23
2022-12-06T19:44:29.417Z,20.27
2022-12-06T19:46:58.278Z,19.65
2022-12-06T19:49:27.304Z,17.83
2022-12-06T19:51:55.737Z,19.62
2022-12-06T19:54:26.126Z,15.93
2022-12-06T19:56:55.337Z,17.70
2022-12-06T19:59:26.567Z,15.57
2022-12-06T20:01:54.800Z,26.57
2022-12-06T20:04:25.273Z,19.37
2022-12-06T20:06:53.735Z,22.13
2022-12-06T20:09:23.371Z,22.13
2022-12-06T20:12:04.131Z,20.25
2022-12-06T20:14:45.711Z,22.50
2022-12-06T20:17:23.836Z,27.58
2022-12-06T20:19:51.413Z,24.52
2022-12-06T20:22:19.906Z,21.87
2022-12-06T20:24:48.379Z,18.10
2022-12-06T20:27:16.147Z,17.87
2022-12-06T20:29:43.934Z,19.58
2022-12-06T20:32:11.672Z,22.23
2022-12-06T20:34:39.223Z,22.08
2022-12-06T20:37:07.046Z,28.75
2022-12-06T20:39:35.931Z,27.80
2022-12-06T20:42:06.218Z,28.25
2022-12-06T20:44:34.925Z,21.08
2022-12-06T20:47:02.462Z,21.75
2022-12-06T20:49:30.137Z,21.05
2022-12-06T20:51:59.703Z,28.90
2022-12-06T20:54:27.138Z,20.23
2022-12-06T20:56:54.587Z,20.83
2022-12-06T20:59:22.426Z,22.55
2022-12-06T21:01:50.275Z,18.87
2022-12-06T21:04:20.027Z,50.87
2022-12-06T21:06:47.758Z,37.25
2022-12-06T21:09:15.266Z,21.10
2022-12-06T21:11:42.699Z,28.08
2022-12-06T21:14:13.123Z,23.25
2022-12-06T21:16:42.435Z,22.17
2022-12-06T21:19:17.009Z,16.08
2022-12-06T21:21:47.187Z,20.23
2022-12-06T21:24:17.887Z,21.50
2022-12-06T21:26:45.736Z,14.98
2022-12-06T21:29:19.042Z,29.17
2022-12-06T21:31:46.814Z,20.17
2022-12-06T21:34:15.374Z,21.60
2022-12-06T21:36:43.181Z,22.45
2022-12-06T21:39:13.705Z,28.25
2022-12-06T21:41:41.588Z,19.90
2022-12-06T21:44:09.773Z,18.95
2022-12-06T21:46:37.741Z,30.52
2022-12-06T21:49:05.282Z,24.08
2022-12-06T21:51:32.768Z,27.83
2022-12-06T21:54:01.612Z,31.63
2022-12-06T21:56:30.689Z,28.27
2022-12-06T21:59:01.216Z,30.42
2022-12-06T22:01:30.710Z,32.85
2022-12-06T22:04:01.568Z,30.10
2022-12-06T22:06:29.136Z,28.07
2022-12-06T22:08:58.534Z,32.03
2022-12-06T22:11:26.379Z,39.67
2022-12-06T22:13:54.007Z,32.47
2022-12-06T22:16:21.563Z,23.05
2022-12-06T22:18:49.411Z,29.27
2022-12-06T22:21:20.039Z,31.25
2022-12-06T22:23:48.304Z,27.55
2022-12-06T22:26:21.418Z,27.67
2022-12-06T22:28:49.586Z,25.88
2022-12-06T22:31:22.582Z,24.63
2022-12-06T22:33:51.393Z,31.08
2022-12-06T22:36:20.802Z,27.02
2022-12-06T22:38:50.116Z,26.83
2022-12-06T22:41:18.890Z,23.33
2022-12-06T22:43:50.187Z,21.90
2022-12-06T22:46:18.016Z,23.35
2022-12-06T22:48:46.521Z,19.90
2022-12-06T22:51:20.201Z,18.25
2022-12-06T22:53:52.722Z,20.65
2022-12-06T22:56:20.846Z,17.87
2022-12-06T22:58:48.966Z,19.37
2022-12-06T23:01:18.939Z,18.25
2022-12-06T23:03:48.290Z,18.77
2022-12-06T23:06:18.246Z,27.45
2022-12-06T23:08:46.028Z,30.23
2022-12-06T23:11:16.685Z,26.42
2022-12-06T23:13:44.536Z,26.52
2022-12-06T23:16:14.578Z,28.58
2022-12-06T23:18:42.882Z,27.33
2022-12-06T23:21:17.089Z,28.63
2022-12-06T23:23:48.681Z,26.92
2022-12-06T23:26:24.883Z,36.75
2022-12-06T23:28:53.374Z,33.90
2022-12-06T23:31:27.244Z,32.30
2022-12-06T23:33:57.101Z,40.23
2022-12-06T23:36:27.063Z,41.72
2022-12-06T23:38:54.885Z,41.33
2022-12-06T23:41:30.496Z,37.30
2022-12-06T23:43:59.212Z,31.65
2022-12-06T23:46:30.024Z,26.60
2022-12-06T23:48:58.278Z,25.15
2022-12-06T23:51:28.683Z,29.02
2022-12-06T23:53:58.054Z,35.88
2022-12-06T23:56:28.773Z,30.95
2022-12-06T23:58:56.898Z,24.40
